sensor_id;sensor_type;location;lat;lon;timestamp;pressure;altitude;pressure_sealevel;temperature;humidity
30873;BME280;17579;42.690;2.586;2023-02-08T00:02:18;98431.69;;;6.50;84.53
30873;BME280;17579;42.690;2.586;2023-02-08T00:04:43;98434.41;;;6.49;84.55
30873;BME280;17579;42.690;2.586;2023-02-08T00:07:09;98428.13;;;6.51;84.59
30873;BME280;17579;42.690;2.586;2023-02-08T00:09:34;98431.31;;;6.56;84.45
30873;BME280;17579;42.690;2.586;2023-02-08T00:12:00;98428.53;;;6.59;84.45
30873;BME280;17579;42.690;2.586;2023-02-08T00:14:25;98414.34;;;6.62;84.33
30873;BME280;17579;42.690;2.586;2023-02-08T00:16:51;98416.88;;;6.64;84.58
30873;BME280;17579;42.690;2.586;2023-02-08T00:19:16;98416.03;;;6.63;84.25
30873;BME280;17579;42.690;2.586;2023-02-08T00:21:42;98419.59;;;6.62;84.21
30873;BME280;17579;42.690;2.586;2023-02-08T00:24:07;98413.59;;;6.60;84.38
30873;BME280;17579;42.690;2.586;2023-02-08T00:26:33;98408.63;;;6.55;84.29
30873;BME280;17579;42.690;2.586;2023-02-08T00:28:58;98403.47;;;6.54;84.57
30873;BME280;17579;42.690;2.586;2023-02-08T00:31:24;98406.72;;;6.57;84.42
30873;BME280;17579;42.690;2.586;2023-02-08T00:33:50;98404.78;;;6.61;84.45
30873;BME280;17579;42.690;2.586;2023-02-08T00:36:15;98406.34;;;6.64;84.39
30873;BME280;17579;42.690;2.586;2023-02-08T00:38:41;98397.44;;;6.66;84.43
30873;BME280;17579;42.690;2.586;2023-02-08T00:41:06;98405.34;;;6.66;84.32
30873;BME280;17579;42.690;2.586;2023-02-08T00:43:32;98406.19;;;6.67;84.27
30873;BME280;17579;42.690;2.586;2023-02-08T00:45:58;98403.56;;;6.67;84.15
30873;BME280;17579;42.690;2.586;2023-02-08T00:48:25;98398.22;;;6.68;84.18
30873;BME280;17579;42.690;2.586;2023-02-08T00:53:18;98406.66;;;6.73;84.15
30873;BME280;17579;42.690;2.586;2023-02-08T00:55:50;98405.06;;;6.71;84.36
30873;BME280;17579;42.690;2.586;2023-02-08T00:58:16;98407.63;;;6.72;83.92
30873;BME280;17579;42.690;2.586;2023-02-08T01:00:42;98402.53;;;6.69;83.92
30873;BME280;17579;42.690;2.586;2023-02-08T01:03:08;98407.50;;;6.59;83.83
30873;BME280;17579;42.690;2.586;2023-02-08T01:05:36;98413.00;;;6.55;83.95
30873;BME280;17579;42.690;2.586;2023-02-08T01:08:02;98401.47;;;6.57;84.21
30873;BME280;17579;42.690;2.586;2023-02-08T01:10:28;98409.28;;;6.59;83.83
30873;BME280;17579;42.690;2.586;2023-02-08T01:12:54;98401.38;;;6.59;84.01
30873;BME280;17579;42.690;2.586;2023-02-08T01:15:19;98393.50;;;6.59;83.99
30873;BME280;17579;42.690;2.586;2023-02-08T01:17:45;98390.03;;;6.58;83.83
30873;BME280;17579;42.690;2.586;2023-02-08T01:20:10;98386.72;;;6.55;83.95
30873;BME280;17579;42.690;2.586;2023-02-08T01:22:36;98388.53;;;6.54;83.86
30873;BME280;17579;42.690;2.586;2023-02-08T01:25:01;98392.16;;;6.52;83.88
30873;BME280;17579;42.690;2.586;2023-02-08T01:27:27;98389.63;;;6.50;83.76
30873;BME280;17579;42.690;2.586;2023-02-08T01:29:53;98394.16;;;6.48;83.93
30873;BME280;17579;42.690;2.586;2023-02-08T01:32:20;98388.03;;;6.48;84.11
30873;BME280;17579;42.690;2.586;2023-02-08T01:34:46;98392.53;;;6.46;84.07
30873;BME280;17579;42.690;2.586;2023-02-08T01:37:12;98398.53;;;6.48;84.31
30873;BME280;17579;42.690;2.586;2023-02-08T01:39:37;98402.78;;;6.50;84.07
30873;BME280;17579;42.690;2.586;2023-02-08T01:42:03;98394.16;;;6.48;84.07
30873;BME280;17579;42.690;2.586;2023-02-08T01:46:55;98394.91;;;6.50;83.95
30873;BME280;17579;42.690;2.586;2023-02-08T01:51:56;98396.88;;;6.47;84.07
30873;BME280;17579;42.690;2.586;2023-02-08T01:54:27;98396.88;;;6.47;84.09
30873;BME280;17579;42.690;2.586;2023-02-08T01:56:54;98393.56;;;6.43;84.07
30873;BME280;17579;42.690;2.586;2023-02-08T01:59:25;98398.28;;;6.38;84.29
30873;BME280;17579;42.690;2.586;2023-02-08T02:01:55;98405.38;;;6.36;84.09
30873;BME280;17579;42.690;2.586;2023-02-08T02:04:22;98391.97;;;6.40;84.26
30873;BME280;17579;42.690;2.586;2023-02-08T02:06:51;98390.00;;;6.44;84.25
30873;BME280;17579;42.690;2.586;2023-02-08T02:09:23;98381.94;;;6.47;84.26
30873;BME280;17579;42.690;2.586;2023-02-08T02:11:52;98385.25;;;6.51;84.08
30873;BME280;17579;42.690;2.586;2023-02-08T02:14:19;98372.00;;;6.52;84.24
30873;BME280;17579;42.690;2.586;2023-02-08T02:16:45;98378.00;;;6.54;84.20
30873;BME280;17579;42.690;2.586;2023-02-08T02:28:15;98379.44;;;6.60;84.29
30873;BME280;17579;42.690;2.586;2023-02-08T02:38:43;98389.34;;;6.55;84.28
30873;BME280;17579;42.690;2.586;2023-02-08T02:41:37;98381.00;;;6.48;84.40
30873;BME280;17579;42.690;2.586;2023-02-08T02:44:12;98378.75;;;6.56;84.21
30873;BME280;17579;42.690;2.586;2023-02-08T02:46:45;98378.69;;;6.58;84.31
30873;BME280;17579;42.690;2.586;2023-02-08T02:49:19;98373.16;;;6.63;84.32
30873;BME280;17579;42.690;2.586;2023-02-08T02:51:55;98375.59;;;6.66;84.24
30873;BME280;17579;42.690;2.586;2023-02-08T02:54:26;98378.84;;;6.69;84.25
30873;BME280;17579;42.690;2.586;2023-02-08T02:56:57;98374.47;;;6.70;84.09
30873;BME280;17579;42.690;2.586;2023-02-08T02:59:26;98370.88;;;6.71;84.15
30873;BME280;17579;42.690;2.586;2023-02-08T03:01:53;98369.56;;;6.64;83.90
30873;BME280;17579;42.690;2.586;2023-02-08T03:06:57;98359.91;;;6.64;84.02
30873;BME280;17579;42.690;2.586;2023-02-08T03:12:38;98359.13;;;6.62;83.85
30873;BME280;17579;42.690;2.586;2023-02-08T03:20:49;98348.53;;;6.64;83.86
30873;BME280;17579;42.690;2.586;2023-02-08T03:23:24;98346.09;;;6.61;83.95
30873;BME280;17579;42.690;2.586;2023-02-08T03:25:57;98346.09;;;6.61;84.02
30873;BME280;17579;42.690;2.586;2023-02-08T03:31:04;98339.16;;;6.45;83.74
30873;BME280;17579;42.690;2.586;2023-02-08T03:33:53;98336.31;;;6.34;83.92
30873;BME280;17579;42.690;2.586;2023-02-08T03:36:28;98334.44;;;6.36;83.79
30873;BME280;17579;42.690;2.586;2023-02-08T03:39:00;98343.25;;;6.35;83.67
30873;BME280;17579;42.690;2.586;2023-02-08T03:41:32;98346.75;;;6.35;83.62
30873;BME280;17579;42.690;2.586;2023-02-08T03:44:04;98334.72;;;6.31;83.57
30873;BME280;17579;42.690;2.586;2023-02-08T03:46:35;98342.69;;;6.30;83.19
30873;BME280;17579;42.690;2.586;2023-02-08T03:49:07;98343.72;;;6.27;83.41
30873;BME280;17579;42.690;2.586;2023-02-08T03:51:35;98342.69;;;6.30;83.42
30873;BME280;17579;42.690;2.586;2023-02-08T03:54:09;98347.84;;;6.31;83.54
30873;BME280;17579;42.690;2.586;2023-02-08T03:56:42;98341.75;;;6.31;83.45
30873;BME280;17579;42.690;2.586;2023-02-08T03:59:14;98341.91;;;6.28;83.41
30873;BME280;17579;42.690;2.586;2023-02-08T04:01:47;98341.19;;;6.26;83.28
30873;BME280;17579;42.690;2.586;2023-02-08T04:04:15;98350.56;;;6.30;83.33
30873;BME280;17579;42.690;2.586;2023-02-08T04:06:43;98349.56;;;6.32;83.18
30873;BME280;17579;42.690;2.586;2023-02-08T04:09:08;98338.09;;;6.33;83.22
30873;BME280;17579;42.690;2.586;2023-02-08T04:11:34;98339.97;;;6.31;83.15
30873;BME280;17579;42.690;2.586;2023-02-08T04:13:59;98337.63;;;6.27;83.11
30873;BME280;17579;42.690;2.586;2023-02-08T04:16:25;98340.06;;;6.30;83.03
30873;BME280;17579;42.690;2.586;2023-02-08T04:18:50;98332.00;;;6.33;83.20
30873;BME280;17579;42.690;2.586;2023-02-08T04:21:16;98337.84;;;6.38;83.01
30873;BME280;17579;42.690;2.586;2023-02-08T04:23:41;98338.56;;;6.40;83.06
30873;BME280;17579;42.690;2.586;2023-02-08T04:26:07;98343.25;;;6.35;82.92
30873;BME280;17579;42.690;2.586;2023-02-08T04:28:33;98330.19;;;6.33;82.84
30873;BME280;17579;42.690;2.586;2023-02-08T04:30:59;98328.44;;;6.34;82.83
30873;BME280;17579;42.690;2.586;2023-02-08T04:33:24;98331.72;;;6.37;82.88
30873;BME280;17579;42.690;2.586;2023-02-08T04:35:51;98330.88;;;6.37;82.73
30873;BME280;17579;42.690;2.586;2023-02-08T04:38:16;98339.50;;;6.39;82.51
30873;BME280;17579;42.690;2.586;2023-02-08T04:40:42;98332.47;;;6.39;82.74
30873;BME280;17579;42.690;2.586;2023-02-08T04:43:07;98322.13;;;6.36;82.37
30873;BME280;17579;42.690;2.586;2023-02-08T04:45:33;98316.03;;;6.36;82.50
30873;BME280;17579;42.690;2.586;2023-02-08T04:48:00;98317.84;;;6.35;82.28
30873;BME280;17579;42.690;2.586;2023-02-08T04:50:26;98318.56;;;6.37;82.40
30873;BME280;17579;42.690;2.586;2023-02-08T04:52:51;98313.22;;;6.39;82.47
30873;BME280;17579;42.690;2.586;2023-02-08T04:55:17;98325.44;;;6.40;82.56
30873;BME280;17579;42.690;2.586;2023-02-08T04:57:42;98319.25;;;6.41;82.54
30873;BME280;17579;42.690;2.586;2023-02-08T05:00:11;98334.81;;;6.44;82.25
30873;BME280;17579;42.690;2.586;2023-02-08T05:02:37;98329.56;;;6.44;82.72
30873;BME280;17579;42.690;2.586;2023-02-08T05:05:06;98333.03;;;6.45;82.26
30873;BME280;17579;42.690;2.586;2023-02-08T05:07:32;98331.34;;;6.44;81.94
30873;BME280;17579;42.690;2.586;2023-02-08T05:09:58;98330.50;;;6.43;82.14
30873;BME280;17579;42.690;2.586;2023-02-08T05:12:26;98322.63;;;6.43;82.18
30873;BME280;17579;42.690;2.586;2023-02-08T05:14:51;98333.97;;;6.44;82.37
30873;BME280;17579;42.690;2.586;2023-02-08T05:17:17;98333.97;;;6.44;82.08
30873;BME280;17579;42.690;2.586;2023-02-08T05:19:45;98335.75;;;6.43;82.08
30873;BME280;17579;42.690;2.586;2023-02-08T05:22:11;98327.69;;;6.46;82.00
30873;BME280;17579;42.690;2.586;2023-02-08T05:24:36;98329.38;;;6.47;81.88
30873;BME280;17579;42.690;2.586;2023-02-08T05:27:02;98324.22;;;6.46;81.74
30873;BME280;17579;42.690;2.586;2023-02-08T05:29:27;98327.97;;;6.41;81.58
30873;BME280;17579;42.690;2.586;2023-02-08T05:31:53;98329.84;;;6.39;81.63
30873;BME280;17579;42.690;2.586;2023-02-08T05:34:18;98329.28;;;6.34;81.41
30873;BME280;17579;42.690;2.586;2023-02-08T05:36:44;98322.50;;;6.30;81.36
30873;BME280;17579;42.690;2.586;2023-02-08T05:39:09;98331.41;;;6.28;81.30
30873;BME280;17579;42.690;2.586;2023-02-08T05:41:35;98328.97;;;6.24;81.42
30873;BME280;17579;42.690;2.586;2023-02-08T05:44:01;98323.06;;;6.21;81.31
30873;BME280;17579;42.690;2.586;2023-02-08T05:46:26;98325.78;;;6.19;81.30
30873;BME280;17579;42.690;2.586;2023-02-08T05:48:52;98333.84;;;6.16;81.08
30873;BME280;17579;42.690;2.586;2023-02-08T05:51:17;98335.72;;;6.14;81.10
30873;BME280;17579;42.690;2.586;2023-02-08T05:53:45;98340.97;;;6.14;81.40
30873;BME280;17579;42.690;2.586;2023-02-08T05:56:10;98332.81;;;6.19;81.54
30873;BME280;17579;42.690;2.586;2023-02-08T05:58:36;98332.56;;;6.23;81.55
30873;BME280;17579;42.690;2.586;2023-02-08T06:01:07;98337.03;;;6.21;81.42
30873;BME280;17579;42.690;2.586;2023-02-08T06:03:33;98342.88;;;6.27;81.36
30873;BME280;17579;42.690;2.586;2023-02-08T06:05:59;98340.25;;;6.27;81.69
30873;BME280;17579;42.690;2.586;2023-02-08T06:08:26;98337.44;;;6.30;81.59
30873;BME280;17579;42.690;2.586;2023-02-08T06:10:52;98347.84;;;6.31;81.51
30873;BME280;17579;42.690;2.586;2023-02-08T06:13:17;98358.34;;;6.31;81.43
30873;BME280;17579;42.690;2.586;2023-02-08T06:15:43;98358.66;;;6.27;81.39
30873;BME280;17579;42.690;2.586;2023-02-08T06:18:09;98354.94;;;6.15;80.92
30873;BME280;17579;42.690;2.586;2023-02-08T06:20:35;98362.69;;;6.02;81.16
30873;BME280;17579;42.690;2.586;2023-02-08T06:23:01;98366.00;;;5.89;81.12
30873;BME280;17579;42.690;2.586;2023-02-08T06:25:26;98370.69;;;5.68;81.07
30873;BME280;17579;42.690;2.586;2023-02-08T06:27:54;98376.03;;;5.51;81.19
30873;BME280;17579;42.690;2.586;2023-02-08T06:30:20;98378.06;;;5.46;81.35
30873;BME280;17579;42.690;2.586;2023-02-08T06:32:45;98375.44;;;5.46;81.49
30873;BME280;17579;42.690;2.586;2023-02-08T06:35:12;98381.81;;;5.42;81.52
30873;BME280;17579;42.690;2.586;2023-02-08T06:37:37;98383.84;;;5.36;82.02
30873;BME280;17579;42.690;2.586;2023-02-08T06:40:04;98387.22;;;5.38;81.94
30873;BME280;17579;42.690;2.586;2023-02-08T06:42:30;98393.16;;;5.42;81.98
30873;BME280;17579;42.690;2.586;2023-02-08T06:44:55;98396.69;;;5.41;81.81
30873;BME280;17579;42.690;2.586;2023-02-08T06:47:24;98393.25;;;5.41;81.97
30873;BME280;17579;42.690;2.586;2023-02-08T06:49:50;98402.81;;;5.42;82.08
30873;BME280;17579;42.690;2.586;2023-02-08T06:52:16;98401.78;;;5.44;82.11
30873;BME280;17579;42.690;2.586;2023-02-08T06:54:41;98408.72;;;5.45;81.88
30873;BME280;17579;42.690;2.586;2023-02-08T06:57:07;98407.19;;;5.41;81.94
30873;BME280;17579;42.690;2.586;2023-02-08T06:59:33;98402.94;;;5.38;81.90
30873;BME280;17579;42.690;2.586;2023-02-08T07:01:58;98410.06;;;5.36;82.14
30873;BME280;17579;42.690;2.586;2023-02-08T07:04:24;98411.00;;;5.35;81.97
30873;BME280;17579;42.690;2.586;2023-02-08T07:06:52;98413.03;;;5.30;81.94
30873;BME280;17579;42.690;2.586;2023-02-08T07:09:18;98412.19;;;5.30;81.90
30873;BME280;17579;42.690;2.586;2023-02-08T07:11:43;98413.03;;;5.30;81.91
30873;BME280;17579;42.690;2.586;2023-02-08T07:14:12;98415.75;;;5.29;81.82
30873;BME280;17579;42.690;2.586;2023-02-08T07:16:38;98417.50;;;5.28;81.62
30873;BME280;17579;42.690;2.586;2023-02-08T07:19:03;98413.13;;;5.29;81.75
30873;BME280;17579;42.690;2.586;2023-02-08T07:21:29;98414.97;;;5.27;81.88
30873;BME280;17579;42.690;2.586;2023-02-08T07:23:55;98414.81;;;5.30;81.83
30873;BME280;17579;42.690;2.586;2023-02-08T07:26:20;98418.13;;;5.33;81.90
30873;BME280;17579;42.690;2.586;2023-02-08T07:28:46;98418.88;;;5.35;81.81
30873;BME280;17579;42.690;2.586;2023-02-08T07:31:14;98412.63;;;5.38;81.75
30873;BME280;17579;42.690;2.586;2023-02-08T07:33:41;98411.50;;;5.42;81.68
30873;BME280;17579;42.690;2.586;2023-02-08T07:36:08;98410.44;;;5.46;81.79
30873;BME280;17579;42.690;2.586;2023-02-08T07:38:34;98414.56;;;5.50;81.90
30873;BME280;17579;42.690;2.586;2023-02-08T07:41:04;98415.31;;;5.52;81.79
30873;BME280;17579;42.690;2.586;2023-02-08T07:43:30;98417.03;;;5.53;81.54
30873;BME280;17579;42.690;2.586;2023-02-08T07:45:57;98413.63;;;5.51;81.65
30873;BME280;17579;42.690;2.586;2023-02-08T07:48:23;98411.94;;;5.50;81.46
30873;BME280;17579;42.690;2.586;2023-02-08T07:50:49;98419.91;;;5.49;81.72
30873;BME280;17579;42.690;2.586;2023-02-08T07:53:14;98417.84;;;5.54;81.77
30873;BME280;17579;42.690;2.586;2023-02-08T07:55:40;98422.09;;;5.57;81.87
30873;BME280;17579;42.690;2.586;2023-02-08T07:58:06;98429.19;;;5.54;81.81
30873;BME280;17579;42.690;2.586;2023-02-08T08:00:32;98430.47;;;5.47;81.50
30873;BME280;17579;42.690;2.586;2023-02-08T08:02:57;98432.34;;;5.45;81.42
30873;BME280;17579;42.690;2.586;2023-02-08T08:05:23;98435.03;;;5.44;81.78
30873;BME280;17579;42.690;2.586;2023-02-08T08:07:48;98431.41;;;5.46;81.80
30873;BME280;17579;42.690;2.586;2023-02-08T08:10:14;98442.91;;;5.44;81.48
30873;BME280;17579;42.690;2.586;2023-02-08T08:12:40;98428.34;;;5.38;81.53
30873;BME280;17579;42.690;2.586;2023-02-08T08:15:05;98430.22;;;5.36;81.64
30873;BME280;17579;42.690;2.586;2023-02-08T08:17:31;98434.44;;;5.38;81.93
30873;BME280;17579;42.690;2.586;2023-02-08T08:19:57;98432.50;;;5.42;81.85
30873;BME280;17579;42.690;2.586;2023-02-08T08:22:22;98440.03;;;5.48;82.05
30873;BME280;17579;42.690;2.586;2023-02-08T08:24:48;98434.69;;;5.50;82.04
30873;BME280;17579;42.690;2.586;2023-02-08T08:27:13;98440.66;;;5.53;81.74
30873;BME280;17579;42.690;2.586;2023-02-08T08:29:39;98427.69;;;5.50;82.13
30873;BME280;17579;42.690;2.586;2023-02-08T08:32:06;98423.28;;;5.51;82.14
30873;BME280;17579;42.690;2.586;2023-02-08T08:34:32;98432.00;;;5.51;82.10
30873;BME280;17579;42.690;2.586;2023-02-08T08:36:59;98429.53;;;5.48;82.08
30873;BME280;17579;42.690;2.586;2023-02-08T08:39:25;98438.31;;;5.31;81.68
30873;BME280;17579;42.690;2.586;2023-02-08T08:41:56;98444.25;;;5.19;81.63
30873;BME280;17579;42.690;2.586;2023-02-08T08:44:22;98439.38;;;5.11;82.02
30873;BME280;17579;42.690;2.586;2023-02-08T08:46:47;98440.19;;;5.13;82.05
30873;BME280;17579;42.690;2.586;2023-02-08T08:49:13;98443.28;;;5.20;82.12
30873;BME280;17579;42.690;2.586;2023-02-08T08:51:38;98450.25;;;5.21;82.20
30873;BME280;17579;42.690;2.586;2023-02-08T08:54:04;98449.56;;;5.17;82.09
30873;BME280;17579;42.690;2.586;2023-02-08T08:56:31;98445.50;;;5.12;82.11
30873;BME280;17579;42.690;2.586;2023-02-08T08:58:56;98442.25;;;5.07;82.08
30873;BME280;17579;42.690;2.586;2023-02-08T09:01:22;98444.13;;;5.05;82.20
30873;BME280;17579;42.690;2.586;2023-02-08T09:03:48;98442.44;;;5.03;82.07
30873;BME280;17579;42.690;2.586;2023-02-08T09:06:13;98447.69;;;5.03;82.10
30873;BME280;17579;42.690;2.586;2023-02-08T09:08:39;98451.22;;;5.02;82.18
30873;BME280;17579;42.690;2.586;2023-02-08T09:11:06;98441.69;;;5.01;82.41
30873;BME280;17579;42.690;2.586;2023-02-08T09:13:33;98435.31;;;5.06;82.75
30873;BME280;17579;42.690;2.586;2023-02-08T09:16:06;98445.34;;;5.15;82.80
30873;BME280;17579;42.690;2.586;2023-02-08T09:18:33;98445.25;;;5.16;82.56
30873;BME280;17579;42.690;2.586;2023-02-08T09:20:58;98441.63;;;5.19;82.38
30873;BME280;17579;42.690;2.586;2023-02-08T09:23:24;98443.72;;;5.12;82.31
30873;BME280;17579;42.690;2.586;2023-02-08T09:25:49;98435.31;;;5.06;82.46
30873;BME280;17579;42.690;2.586;2023-02-08T09:28:15;98441.34;;;5.08;82.51
30873;BME280;17579;42.690;2.586;2023-02-08T09:30:41;98447.69;;;5.03;82.51
30873;BME280;17579;42.690;2.586;2023-02-08T09:33:07;98452.00;;;5.05;82.64
30873;BME280;17579;42.690;2.586;2023-02-08T09:35:33;98453.91;;;5.01;82.81
30873;BME280;17579;42.690;2.586;2023-02-08T09:37:58;98459.16;;;5.01;82.75
30873;BME280;17579;42.690;2.586;2023-02-08T09:40:37;98463.19;;;4.91;82.77
30873;BME280;17579;42.690;2.586;2023-02-08T09:48:15;98444.84;;;4.91;83.15
30873;BME280;17579;42.690;2.586;2023-02-08T09:50:45;98455.25;;;4.92;82.85
30873;BME280;17579;42.690;2.586;2023-02-08T09:53:16;98461.28;;;4.94;83.05
30873;BME280;17579;42.690;2.586;2023-02-08T09:55:48;98451.88;;;4.90;83.17
30873;BME280;17579;42.690;2.586;2023-02-08T09:58:21;98454.34;;;4.93;83.51
30873;BME280;17579;42.690;2.586;2023-02-08T10:00:49;98449.38;;;5.05;83.38
30873;BME280;17579;42.690;2.586;2023-02-08T10:03:20;98439.47;;;5.10;83.50
30873;BME280;17579;42.690;2.586;2023-02-08T10:05:46;98452.19;;;5.17;83.62
30873;BME280;17579;42.690;2.586;2023-02-08T10:08:12;98460.16;;;5.16;83.55
30873;BME280;17579;42.690;2.586;2023-02-08T10:10:48;98460.53;;;5.08;83.40
30873;BME280;17579;42.690;2.586;2023-02-08T10:13:40;98470.66;;;4.98;83.35
30873;BME280;17579;42.690;2.586;2023-02-08T10:19:09;98470.47;;;5.19;83.32
30873;BME280;17579;42.690;2.586;2023-02-08T10:24:21;98467.97;;;5.33;83.44
30873;BME280;17579;42.690;2.586;2023-02-08T10:26:59;98467.03;;;5.34;83.31
30873;BME280;17579;42.690;2.586;2023-02-08T10:29:33;98470.09;;;5.43;83.64
30873;BME280;17579;42.690;2.586;2023-02-08T10:32:18;98474.91;;;5.34;83.43
30873;BME280;17579;42.690;2.586;2023-02-08T10:34:53;98478.19;;;5.38;83.68
30873;BME280;17579;42.690;2.586;2023-02-08T10:37:28;98478.03;;;5.41;83.67
30873;BME280;17579;42.690;2.586;2023-02-08T10:39:54;98485.75;;;5.44;83.62
30873;BME280;17579;42.690;2.586;2023-02-08T10:42:23;98481.28;;;5.46;83.59
30873;BME280;17579;42.690;2.586;2023-02-08T10:47:44;98472.97;;;5.54;83.52
30873;BME280;17579;42.690;2.586;2023-02-08T10:50:28;98474.69;;;5.55;83.57
30873;BME280;17579;42.690;2.586;2023-02-08T10:52:57;98474.41;;;5.60;83.87
30873;BME280;17579;42.690;2.586;2023-02-08T10:55:23;98475.13;;;5.63;83.95
30873;BME280;17579;42.690;2.586;2023-02-08T10:57:51;98467.91;;;5.67;83.96
30873;BME280;17579;42.690;2.586;2023-02-08T11:00:23;98477.22;;;5.72;83.75
30873;BME280;17579;42.690;2.586;2023-02-08T11:02:51;98472.72;;;5.75;84.10
30873;BME280;17579;42.690;2.586;2023-02-08T11:05:20;98467.47;;;5.75;84.09
30873;BME280;17579;42.690;2.586;2023-02-08T11:08:14;98466.81;;;5.71;84.02
30873;BME280;17579;42.690;2.586;2023-02-08T11:10:45;98460.53;;;5.73;83.82
30873;BME280;17579;42.690;2.586;2023-02-08T11:13:19;98462.06;;;5.78;83.74
30873;BME280;17579;42.690;2.586;2023-02-08T11:15:53;98465.88;;;5.72;83.60
30873;BME280;17579;42.690;2.586;2023-02-08T11:21:01;98456.56;;;5.66;83.76
30873;BME280;17579;42.690;2.586;2023-02-08T11:23:29;98454.69;;;5.68;83.73
30873;BME280;17579;42.690;2.586;2023-02-08T11:26:18;98452.16;;;5.67;84.08
30873;BME280;17579;42.690;2.586;2023-02-08T11:31:32;98453.75;;;5.69;83.45
30873;BME280;17579;42.690;2.586;2023-02-08T11:36:44;98449.09;;;5.59;83.38
30873;BME280;17579;42.690;2.586;2023-02-08T11:41:42;98451.06;;;5.55;83.79
30873;BME280;17579;42.690;2.586;2023-02-08T11:44:15;98441.13;;;5.60;83.90
30873;BME280;17579;42.690;2.586;2023-02-08T11:46:46;98434.47;;;5.70;83.90
30873;BME280;17579;42.690;2.586;2023-02-08T11:49:22;98422.94;;;5.73;84.09
30873;BME280;17579;42.690;2.586;2023-02-08T11:51:48;98422.44;;;5.82;83.93
30873;BME280;17579;42.690;2.586;2023-02-08T11:54:33;98424.53;;;5.76;84.18
30873;BME280;17579;42.690;2.586;2023-02-08T11:57:01;98424.03;;;5.85;83.77
30873;BME280;17579;42.690;2.586;2023-02-08T11:59:27;98425.78;;;5.84;83.92
30873;BME280;17579;42.690;2.586;2023-02-08T12:01:54;98418.78;;;5.85;84.03
30873;BME280;17579;42.690;2.586;2023-02-08T12:04:19;98421.75;;;5.79;83.87
30873;BME280;17579;42.690;2.586;2023-02-08T12:07:00;98419.38;;;5.74;84.08
30873;BME280;17579;42.690;2.586;2023-02-08T12:09:48;98412.19;;;5.78;83.86
30873;BME280;17579;42.690;2.586;2023-02-08T12:12:52;98420.63;;;5.83;84.19
30873;BME280;17579;42.690;2.586;2023-02-08T12:20:42;98403.22;;;5.98;84.16
30873;BME280;17579;42.690;2.586;2023-02-08T12:31:15;98406.63;;;6.14;84.53
30873;BME280;17579;42.690;2.586;2023-02-08T12:36:38;98410.63;;;5.89;84.17
30873;BME280;17579;42.690;2.586;2023-02-08T12:41:39;98403.28;;;5.80;84.04
30873;BME280;17579;42.690;2.586;2023-02-08T12:44:09;98396.00;;;5.85;84.07
30873;BME280;17579;42.690;2.586;2023-02-08T12:56:45;98363.66;;;5.85;83.88
30873;BME280;17579;42.690;2.586;2023-02-08T12:59:21;98368.13;;;5.83;84.10
30873;BME280;17579;42.690;2.586;2023-02-08T13:01:49;98362.44;;;5.90;84.19
30873;BME280;17579;42.690;2.586;2023-02-08T13:04:21;98364.81;;;5.95;84.16
30873;BME280;17579;42.690;2.586;2023-02-08T13:06:52;98363.00;;;5.96;84.63
30873;BME280;17579;42.690;2.586;2023-02-08T13:09:38;98355.75;;;6.01;84.51
30873;BME280;17579;42.690;2.586;2023-02-08T13:15:04;98354.00;;;6.16;84.19
30873;BME280;17579;42.690;2.586;2023-02-08T13:17:43;98352.25;;;6.16;84.62
30873;BME280;17579;42.690;2.586;2023-02-08T13:22:39;98355.44;;;6.21;84.29
30873;BME280;17579;42.690;2.586;2023-02-08T13:25:13;98344.91;;;6.21;84.51
30873;BME280;17579;42.690;2.586;2023-02-08T13:27:40;98349.06;;;6.26;84.39
30873;BME280;17579;42.690;2.586;2023-02-08T13:30:15;98350.84;;;6.25;84.38
30873;BME280;17579;42.690;2.586;2023-02-08T13:32:44;98340.69;;;6.19;84.15
30873;BME280;17579;42.690;2.586;2023-02-08T13:35:15;98350.44;;;6.17;84.24
30873;BME280;17579;42.690;2.586;2023-02-08T13:37:50;98345.56;;;6.11;84.31
30873;BME280;17579;42.690;2.586;2023-02-08T13:40:20;98344.88;;;6.07;84.00
30873;BME280;17579;42.690;2.586;2023-02-08T13:43:07;98345.75;;;5.92;84.41
30873;BME280;17579;42.690;2.586;2023-02-08T13:45:43;98340.19;;;5.98;84.16
30873;BME280;17579;42.690;2.586;2023-02-08T13:48:12;98341.09;;;5.97;84.30
30873;BME280;17579;42.690;2.586;2023-02-08T13:50:55;98340.25;;;5.80;84.27
30873;BME280;17579;42.690;2.586;2023-02-08T13:55:50;98330.44;;;5.84;84.18
30873;BME280;17579;42.690;2.586;2023-02-08T14:03:23;98341.31;;;5.78;84.49
30873;BME280;17579;42.690;2.586;2023-02-08T14:05:53;98344.50;;;5.83;84.44
30873;BME280;17579;42.690;2.586;2023-02-08T14:13:22;98342.28;;;5.91;84.40
30873;BME280;17579;42.690;2.586;2023-02-08T14:18:38;98338.31;;;6.00;84.57
30873;BME280;17579;42.690;2.586;2023-02-08T14:21:05;98335.16;;;5.93;84.31
30873;BME280;17579;42.690;2.586;2023-02-08T14:23:34;98341.25;;;5.94;84.70
30873;BME280;17579;42.690;2.586;2023-02-08T14:26:08;98338.72;;;5.92;84.31
30873;BME280;17579;42.690;2.586;2023-02-08T14:28:42;98333.28;;;5.95;84.58
30873;BME280;17579;42.690;2.586;2023-02-08T14:31:09;98329.59;;;5.99;84.60
30873;BME280;17579;42.690;2.586;2023-02-08T14:33:39;98331.16;;;6.02;84.70
30873;BME280;17579;42.690;2.586;2023-02-08T14:36:19;98327.06;;;5.98;84.60
30873;BME280;17579;42.690;2.586;2023-02-08T14:38:49;98335.81;;;5.97;84.62
30873;BME280;17579;42.690;2.586;2023-02-08T14:43:42;98328.47;;;6.03;84.59
30873;BME280;17579;42.690;2.586;2023-02-08T14:48:54;98326.97;;;5.99;84.63
30873;BME280;17579;42.690;2.586;2023-02-08T14:51:27;98326.19;;;5.97;84.72
30873;BME280;17579;42.690;2.586;2023-02-08T14:54:02;98325.31;;;5.97;84.58
30873;BME280;17579;42.690;2.586;2023-02-08T14:56:33;98329.91;;;5.93;84.29
30873;BME280;17579;42.690;2.586;2023-02-08T14:59:19;98333.16;;;5.82;84.69
30873;BME280;17579;42.690;2.586;2023-02-08T15:01:51;98334.19;;;5.80;84.22
30873;BME280;17579;42.690;2.586;2023-02-08T15:04:29;98330.91;;;5.76;84.64
30873;BME280;17579;42.690;2.586;2023-02-08T15:09:35;98324.34;;;5.83;84.39
30873;BME280;17579;42.690;2.586;2023-02-08T15:12:05;98324.25;;;5.85;84.31
30873;BME280;17579;42.690;2.586;2023-02-08T15:14:34;98323.41;;;5.84;84.51
30873;BME280;17579;42.690;2.586;2023-02-08T15:17:01;98326.72;;;5.88;84.37
30873;BME280;17579;42.690;2.586;2023-02-08T15:19:30;98329.59;;;5.83;84.38